createdAt,value
2018-07-04T00:00:44.235Z,1010.63
2018-07-04T00:01:44.220Z,1010.62
2018-07-04T00:02:44.171Z,1010.61
2018-07-04T00:03:44.161Z,1010.67
2018-07-04T00:04:44.140Z,1010.69
2018-07-04T00:05:44.103Z,1010.66
2018-07-04T00:06:44.093Z,1010.70
2018-07-04T00:07:44.066Z,1010.69
2018-07-04T00:08:44.037Z,1010.70
2018-07-04T00:09:44.021Z,1010.64
2018-07-04T00:10:44.008Z,1010.66
2018-07-04T00:11:43.995Z,1010.65
2018-07-04T00:12:43.949Z,1010.63
2018-07-04T00:13:43.940Z,1010.65
2018-07-04T00:14:43.892Z,1010.63
2018-07-04T00:15:43.876Z,1010.61
2018-07-04T00:16:43.855Z,1010.54
2018-07-04T00:17:43.833Z,1010.59
2018-07-04T00:18:43.805Z,1010.59
2018-07-04T00:19:43.787Z,1010.58
2018-07-04T00:20:43.766Z,1010.57
2018-07-04T00:21:43.743Z,1010.58
2018-07-04T00:22:43.714Z,1010.54
2018-07-04T00:23:43.690Z,1010.56
2018-07-04T00:24:43.676Z,1010.52
2018-07-04T00:25:43.691Z,1010.53
2018-07-04T00:26:43.615Z,1010.52
2018-07-04T00:27:43.597Z,1010.46
2018-07-04T00:28:43.589Z,1010.48
2018-07-04T00:29:43.561Z,1010.46
2018-07-04T00:30:43.546Z,1010.49
2018-07-04T00:31:43.512Z,1010.49
2018-07-04T00:32:43.486Z,1010.49
2018-07-04T00:33:43.465Z,1010.46
2018-07-04T00:34:43.436Z,1010.49
2018-07-04T00:35:43.408Z,1010.48
2018-07-04T00:36:43.401Z,1010.46
2018-07-04T00:37:43.374Z,1010.50
2018-07-04T00:38:43.350Z,1010.51
2018-07-04T00:39:43.319Z,1010.49
2018-07-04T00:40:43.312Z,1010.53
2018-07-04T00:41:43.309Z,1010.49
2018-07-04T00:42:43.251Z,1010.58
2018-07-04T00:43:43.236Z,1010.53
2018-07-04T00:44:43.205Z,1010.53
2018-07-04T00:45:43.185Z,1010.49
2018-07-04T00:46:43.153Z,1010.47
2018-07-04T00:47:43.131Z,1010.49
2018-07-04T00:48:43.117Z,1010.50
2018-07-04T00:49:43.101Z,1010.50
2018-07-04T00:50:43.071Z,1010.51
2018-07-04T00:51:43.046Z,1010.49
2018-07-04T00:52:43.015Z,1010.48
2018-07-04T00:53:42.996Z,1010.50
2018-07-04T00:54:42.972Z,1010.46
2018-07-04T00:55:42.947Z,1010.43
2018-07-04T00:56:42.926Z,1010.42
2018-07-04T00:57:42.906Z,1010.44
2018-07-04T00:58:42.874Z,1010.47
2018-07-04T00:59:42.867Z,1010.47
2018-07-04T01:00:42.840Z,1010.48
2018-07-04T01:01:42.807Z,1010.46
2018-07-04T01:02:42.782Z,1010.45
2018-07-04T01:03:42.759Z,1010.47
2018-07-04T01:04:42.743Z,1010.47
2018-07-04T01:05:42.718Z,1010.48
2018-07-04T01:06:42.691Z,1010.49
2018-07-04T01:07:42.672Z,1010.49
2018-07-04T01:08:42.644Z,1010.50
2018-07-04T01:09:42.619Z,1010.53
2018-07-04T01:10:42.609Z,1010.46
2018-07-04T01:11:42.577Z,1010.44
2018-07-04T01:12:42.549Z,1010.47
2018-07-04T01:13:42.521Z,1010.46
2018-07-04T01:14:42.503Z,1010.41
2018-07-04T01:15:42.478Z,1010.46
2018-07-04T01:16:42.455Z,1010.46
2018-07-04T01:17:42.443Z,1010.45
2018-07-04T01:18:42.405Z,1010.44
2018-07-04T01:19:42.393Z,1010.43
2018-07-04T01:20:42.360Z,1010.41
2018-07-04T01:21:42.334Z,1010.38
2018-07-04T01:22:42.320Z,1010.36
2018-07-04T01:23:42.292Z,1010.34
2018-07-04T01:24:42.290Z,1010.33
2018-07-04T01:25:42.263Z,1010.30
2018-07-04T01:26:42.219Z,1010.30
2018-07-04T01:27:42.207Z,1010.31
2018-07-04T01:28:42.179Z,1010.29
2018-07-04T01:29:42.154Z,1010.27
2018-07-04T01:30:42.125Z,1010.25
2018-07-04T01:31:42.107Z,1010.24
2018-07-04T01:32:42.080Z,1010.25
2018-07-04T01:33:42.062Z,1010.25
2018-07-04T01:34:42.040Z,1010.23
2018-07-04T01:35:42.027Z,1010.27
2018-07-04T01:36:41.989Z,1010.19
2018-07-04T01:37:41.976Z,1010.25
2018-07-04T01:38:41.965Z,1010.25
2018-07-04T01:39:41.912Z,1010.19
2018-07-04T01:40:41.900Z,1010.14
2018-07-04T01:41:41.864Z,1010.16
2018-07-04T01:42:41.894Z,1010.15
2018-07-04T01:43:41.819Z,1010.14
2018-07-04T01:44:41.808Z,1010.12
2018-07-04T01:45:41.780Z,1010.14
2018-07-04T01:46:41.750Z,1010.10
2018-07-04T01:47:41.725Z,1010.11
2018-07-04T01:48:41.713Z,1010.15
2018-07-04T01:49:41.683Z,1010.15
2018-07-04T01:50:41.654Z,1010.12
2018-07-04T01:51:41.642Z,1010.12
2018-07-04T01:52:41.616Z,1010.10
2018-07-04T01:53:41.605Z,1010.08
2018-07-04T01:54:41.565Z,1010.05
2018-07-04T01:55:41.543Z,1010.03
2018-07-04T01:56:41.548Z,1010.02
2018-07-04T01:57:42.773Z,1010.03
2018-07-04T01:58:43.312Z,1010.02
2018-07-04T01:59:41.445Z,1010.01
2018-07-04T02:00:41.425Z,1010.00
2018-07-04T02:01:41.400Z,1009.98
2018-07-04T02:02:41.376Z,1010.03
2018-07-04T02:03:41.350Z,1010.02
2018-07-04T02:04:41.335Z,1010.03
2018-07-04T02:05:41.308Z,1010.04
2018-07-04T02:06:41.280Z,1010.01
2018-07-04T02:07:41.274Z,1010.03
2018-07-04T02:08:41.253Z,1010.03
2018-07-04T02:09:41.205Z,1010.03
2018-07-04T02:10:41.184Z,1010.04
2018-07-04T02:11:41.167Z,1009.96
2018-07-04T02:12:41.151Z,1010.04
2018-07-04T02:13:41.122Z,1010.02
2018-07-04T02:14:41.083Z,1009.95
2018-07-04T02:15:41.074Z,1010.01
2018-07-04T02:16:41.040Z,1009.98
2018-07-04T02:17:41.018Z,1010.03
2018-07-04T02:18:41.001Z,1010.01
2018-07-04T02:19:40.968Z,1010.07
2018-07-04T02:20:40.949Z,1010.02
2018-07-04T02:21:40.928Z,1010.06
2018-07-04T02:22:40.909Z,1010.07
2018-07-04T02:23:40.876Z,1010.06
2018-07-04T02:24:40.852Z,1010.05
2018-07-04T02:25:40.830Z,1010.01
2018-07-04T02:26:40.809Z,1010.03
2018-07-04T02:27:40.783Z,1010.04
2018-07-04T02:28:40.763Z,1010.03
2018-07-04T02:29:40.739Z,1009.97
2018-07-04T02:30:40.719Z,1009.99
2018-07-04T02:31:40.702Z,1010.01
2018-07-04T02:32:40.669Z,1009.98
2018-07-04T02:33:40.637Z,1010.00
2018-07-04T02:34:40.629Z,1009.96
2018-07-04T02:35:40.592Z,1009.98
2018-07-04T02:36:40.566Z,1009.99
2018-07-04T02:37:40.542Z,1010.01
2018-07-04T02:38:40.520Z,1009.94
2018-07-04T02:39:40.494Z,1009.92
2018-07-04T02:40:40.476Z,1009.95
2018-07-04T02:41:40.448Z,1009.88
2018-07-04T02:42:40.423Z,1009.89
2018-07-04T02:43:40.404Z,1009.86
2018-07-04T02:44:40.377Z,1009.86
2018-07-04T02:45:40.355Z,1009.87
2018-07-04T02:46:40.338Z,1009.90
2018-07-04T02:47:40.314Z,1009.89
2018-07-04T02:48:40.297Z,1009.92
2018-07-04T02:49:40.251Z,1009.86
2018-07-04T02:50:40.233Z,1009.85
2018-07-04T02:51:40.245Z,1009.86
2018-07-04T02:52:40.196Z,1009.86
2018-07-04T02:53:40.157Z,1009.88
2018-07-04T02:54:40.133Z,1009.87
2018-07-04T02:55:40.118Z,1009.89
2018-07-04T02:56:40.086Z,1009.86
2018-07-04T02:57:40.068Z,1009.85
2018-07-04T02:58:40.039Z,1009.83
2018-07-04T02:59:40.011Z,1009.82
2018-07-04T03:00:40.047Z,1009.80
2018-07-04T03:01:39.964Z,1009.79
2018-07-04T03:02:40.011Z,1009.78
2018-07-04T03:03:39.962Z,1009.79
2018-07-04T03:04:39.964Z,1009.77
2018-07-04T03:05:39.872Z,1009.75
2018-07-04T03:06:39.849Z,1009.74
2018-07-04T03:07:39.824Z,1009.72
2018-07-04T03:08:39.804Z,1009.72
2018-07-04T03:09:39.783Z,1009.75
2018-07-04T03:10:39.755Z,1009.71
2018-07-04T03:11:39.735Z,1009.70
2018-07-04T03:12:39.702Z,1009.71
2018-07-04T03:13:39.681Z,1009.72
2018-07-04T03:14:39.651Z,1009.71
2018-07-04T03:15:39.628Z,1009.74
2018-07-04T03:16:39.609Z,1009.73
2018-07-04T03:17:39.584Z,1009.67
2018-07-04T03:18:39.559Z,1009.70
2018-07-04T03:19:39.537Z,1009.69
2018-07-04T03:20:39.517Z,1009.66
2018-07-04T03:21:39.489Z,1009.69
2018-07-04T03:22:39.457Z,1009.66
2018-07-04T03:23:39.438Z,1009.67
2018-07-04T03:24:39.422Z,1009.70
2018-07-04T03:25:39.396Z,1009.70
2018-07-04T03:26:39.366Z,1009.67
2018-07-04T03:27:39.349Z,1009.71
2018-07-04T03:28:39.317Z,1009.73
2018-07-04T03:29:39.314Z,1009.69
2018-07-04T03:30:39.271Z,1009.70
2018-07-04T03:31:39.250Z,1009.69
2018-07-04T03:32:39.236Z,1009.66
2018-07-04T03:33:39.199Z,1009.71
2018-07-04T03:34:39.168Z,1009.71
2018-07-04T03:35:39.146Z,1009.69
2018-07-04T03:36:39.131Z,1009.73
2018-07-04T03:37:39.111Z,1009.77
2018-07-04T03:38:39.076Z,1009.73
2018-07-04T03:39:39.048Z,1009.75
2018-07-04T03:40:39.030Z,1009.76
2018-07-04T03:41:39.014Z,1009.71
2018-07-04T03:42:38.986Z,1009.74
2018-07-04T03:43:38.957Z,1009.75
2018-07-04T03:44:38.931Z,1009.70
2018-07-04T03:45:38.906Z,1009.64
2018-07-04T03:46:38.887Z,1009.63
2018-07-04T03:47:38.871Z,1009.60
2018-07-04T03:48:38.835Z,1009.59
2018-07-04T03:49:38.807Z,1009.56
2018-07-04T03:50:38.781Z,1009.61
2018-07-04T03:51:38.766Z,1009.62
2018-07-04T03:52:38.734Z,1009.66
2018-07-04T03:53:38.715Z,1009.64
2018-07-04T03:54:38.684Z,1009.66
2018-07-04T03:55:38.667Z,1009.66
2018-07-04T03:56:38.640Z,1009.71
2018-07-04T03:57:38.615Z,1009.70
2018-07-04T03:58:38.590Z,1009.72
2018-07-04T03:59:38.573Z,1009.67
2018-07-04T04:00:38.537Z,1009.67
2018-07-04T04:01:38.532Z,1009.69
2018-07-04T04:02:38.491Z,1009.67
2018-07-04T04:03:38.465Z,1009.70
2018-07-04T04:04:38.451Z,1009.69
2018-07-04T04:05:38.441Z,1009.69
2018-07-04T04:06:38.407Z,1009.68
2018-07-04T04:07:38.376Z,1009.73
2018-07-04T04:08:38.360Z,1009.79
2018-07-04T04:09:38.327Z,1009.81
2018-07-04T04:10:38.306Z,1009.86
2018-07-04T04:11:38.295Z,1009.88
2018-07-04T04:12:38.271Z,1009.84
2018-07-04T04:13:38.233Z,1009.77
2018-07-04T04:14:38.199Z,1009.76
2018-07-04T04:15:38.183Z,1009.76
2018-07-04T04:16:39.068Z,1009.74
2018-07-04T04:17:38.133Z,1009.73
2018-07-04T04:18:38.110Z,1009.70
2018-07-04T04:19:38.087Z,1009.68
2018-07-04T04:20:38.062Z,1009.63
2018-07-04T04:21:38.042Z,1009.64
2018-07-04T04:22:38.020Z,1009.61
2018-07-04T04:23:37.993Z,1009.61
2018-07-04T04:24:37.979Z,1009.61
2018-07-04T04:25:37.940Z,1009.65
2018-07-04T04:26:37.918Z,1009.68
2018-07-04T04:27:37.895Z,1009.67
2018-07-04T04:28:37.870Z,1009.72
2018-07-04T04:29:37.853Z,1009.76
2018-07-04T04:30:37.816Z,1009.74
2018-07-04T04:31:37.802Z,1009.73
2018-07-04T04:32:37.774Z,1009.72
2018-07-04T04:33:37.744Z,1009.74
2018-07-04T04:34:37.736Z,1009.71
2018-07-04T04:35:37.704Z,1009.75
2018-07-04T04:36:37.686Z,1009.71
2018-07-04T04:37:37.656Z,1009.71
2018-07-04T04:38:37.666Z,1009.72
2018-07-04T04:39:37.604Z,1009.69
2018-07-04T04:40:37.587Z,1009.69
2018-07-04T04:41:37.573Z,1009.71
2018-07-04T04:42:37.528Z,1009.75
2018-07-04T04:43:37.513Z,1009.75
2018-07-04T04:44:37.492Z,1009.76
2018-07-04T04:45:37.456Z,1009.76
2018-07-04T04:46:37.442Z,1009.77
2018-07-04T04:47:37.406Z,1009.75
2018-07-04T04:48:37.386Z,1009.73
2018-07-04T04:49:37.358Z,1009.74
2018-07-04T04:50:37.345Z,1009.72
2018-07-04T04:51:37.314Z,1009.70
2018-07-04T04:52:37.293Z,1009.66
2018-07-04T04:53:37.278Z,1009.67
2018-07-04T04:54:37.242Z,1009.67
2018-07-04T04:55:37.252Z,1009.67
2018-07-04T04:56:37.191Z,1009.65
2018-07-04T04:57:37.169Z,1009.64
2018-07-04T04:58:37.152Z,1009.65
2018-07-04T04:59:37.121Z,1009.63
2018-07-04T05:00:37.106Z,1009.60
2018-07-04T05:01:37.084Z,1009.61
2018-07-04T05:02:37.056Z,1009.66
2018-07-04T05:03:37.032Z,1009.62
2018-07-04T05:04:37.012Z,1009.58
2018-07-04T05:05:37.002Z,1009.60
2018-07-04T05:06:36.951Z,1009.64
2018-07-04T05:07:36.930Z,1009.62
2018-07-04T05:08:36.910Z,1009.61
2018-07-04T05:09:36.889Z,1009.62
2018-07-04T05:10:36.857Z,1009.65
2018-07-04T05:11:36.835Z,1009.64
2018-07-04T05:12:36.828Z,1009.62
2018-07-04T05:13:36.788Z,1009.57
2018-07-04T05:14:37.585Z,1009.61
2018-07-04T05:15:36.768Z,1009.61
2018-07-04T05:16:36.725Z,1009.60
2018-07-04T05:17:36.707Z,1009.59
2018-07-04T05:18:36.672Z,1009.61
2018-07-04T05:19:36.648Z,1009.55
2018-07-04T05:20:36.629Z,1009.54
2018-07-04T05:21:36.602Z,1009.55
2018-07-04T05:22:36.596Z,1009.53
2018-07-04T05:23:36.558Z,1009.55
2018-07-04T05:24:36.529Z,1009.53
2018-07-04T05:25:36.526Z,1009.51
2018-07-04T05:26:36.505Z,1009.46
2018-07-04T05:27:36.454Z,1009.51
2018-07-04T05:28:36.434Z,1009.55
2018-07-04T05:29:36.420Z,1009.56
2018-07-04T05:30:36.401Z,1009.58
2018-07-04T05:31:36.360Z,1009.58
2018-07-04T05:32:36.347Z,1009.61
2018-07-04T05:33:36.314Z,1009.60
2018-07-04T05:34:36.291Z,1009.56
2018-07-04T05:35:36.271Z,1009.64
2018-07-04T05:36:36.260Z,1009.61
2018-07-04T05:37:36.234Z,1009.59
2018-07-04T05:38:36.200Z,1009.61
2018-07-04T05:39:36.184Z,1009.65
2018-07-04T05:40:36.193Z,1009.58
2018-07-04T05:41:36.151Z,1009.58
2018-07-04T05:42:36.105Z,1009.57
2018-07-04T05:43:36.075Z,1009.56
2018-07-04T05:44:36.059Z,1009.57
2018-07-04T05:45:36.039Z,1009.58
2018-07-04T05:46:36.009Z,1009.57
2018-07-04T05:47:36.147Z,1009.62
2018-07-04T05:48:35.951Z,1009.64
2018-07-04T05:49:35.939Z,1009.64
2018-07-04T05:50:35.903Z,1009.64
2018-07-04T05:51:35.891Z,1009.61
2018-07-04T05:52:35.869Z,1009.66
2018-07-04T05:53:35.839Z,1009.64
2018-07-04T05:54:36.605Z,1009.64
2018-07-04T05:55:35.786Z,1009.67
2018-07-04T05:56:35.766Z,1009.67
2018-07-04T05:57:35.759Z,1009.60
2018-07-04T05:58:35.721Z,1009.62
2018-07-04T05:59:35.715Z,1009.60
2018-07-04T06:00:35.667Z,1009.58
2018-07-04T06:01:35.656Z,1009.58
2018-07-04T06:02:35.700Z,1009.58
2018-07-04T06:03:35.607Z,1009.60
2018-07-04T06:04:35.584Z,1009.63
2018-07-04T06:05:35.570Z,1009.63
2018-07-04T06:06:35.528Z,1009.59
2018-07-04T06:07:35.511Z,1009.66
2018-07-04T06:08:35.485Z,1009.63
2018-07-04T06:09:35.467Z,1009.65
2018-07-04T06:10:35.433Z,1009.66
2018-07-04T06:11:35.417Z,1009.65
2018-07-04T06:12:35.400Z,1009.63
2018-07-04T06:13:35.375Z,1009.61
2018-07-04T06:14:35.357Z,1009.60
2018-07-04T06:15:35.322Z,1009.61
2018-07-04T06:16:35.300Z,1009.66
2018-07-04T06:17:35.284Z,1009.66
2018-07-04T06:18:35.367Z,1009.65
2018-07-04T06:19:35.297Z,1009.64
2018-07-04T06:20:35.213Z,1009.66
2018-07-04T06:21:35.231Z,1009.65
2018-07-04T06:22:35.208Z,1009.66
2018-07-04T06:23:35.196Z,1009.64
2018-07-04T06:24:35.198Z,1009.64
2018-07-04T06:25:35.126Z,1009.67
2018-07-04T06:26:35.063Z,1009.65
2018-07-04T06:27:35.050Z,1009.65
2018-07-04T06:28:35.032Z,1009.65
2018-07-04T06:29:34.999Z,1009.62
2018-07-04T06:30:34.986Z,1009.63
2018-07-04T06:31:34.953Z,1009.60
2018-07-04T06:32:34.926Z,1009.59
2018-07-04T06:33:34.912Z,1009.60
2018-07-04T06:34:34.873Z,1009.60
2018-07-04T06:35:34.857Z,1009.60
2018-07-04T06:36:34.846Z,1009.60
2018-07-04T06:37:34.817Z,1009.61
2018-07-04T06:38:34.795Z,1009.67
2018-07-04T06:39:34.766Z,1009.60
2018-07-04T06:40:34.738Z,1009.63
2018-07-04T06:41:34.722Z,1009.66
2018-07-04T06:42:34.726Z,1009.65
2018-07-04T06:43:34.684Z,1009.65
2018-07-04T06:44:34.721Z,1009.59
2018-07-04T06:45:34.631Z,1009.62
2018-07-04T06:46:34.650Z,1009.61
2018-07-04T06:47:34.591Z,1009.59
2018-07-04T06:48:34.573Z,1009.57
2018-07-04T06:49:34.536Z,1009.55
2018-07-04T06:50:34.510Z,1009.55
2018-07-04T06:51:34.493Z,1009.50
2018-07-04T06:52:34.463Z,1009.48
2018-07-04T06:53:34.450Z,1009.51
2018-07-04T06:54:34.450Z,1009.48
2018-07-04T06:55:34.411Z,1009.46
2018-07-04T06:56:34.381Z,1009.54
2018-07-04T06:57:34.357Z,1009.55
2018-07-04T06:58:34.330Z,1009.54
2018-07-04T06:59:34.311Z,1009.56
2018-07-04T07:00:34.283Z,1009.55
2018-07-04T07:01:34.268Z,1009.57
2018-07-04T07:02:34.248Z,1009.57
2018-07-04T07:03:34.223Z,1009.54
2018-07-04T07:04:34.203Z,1009.48
2018-07-04T07:05:34.196Z,1009.50
2018-07-04T07:06:34.151Z,1009.50
2018-07-04T07:07:34.132Z,1009.49
2018-07-04T07:08:34.124Z,1009.48
2018-07-04T07:09:34.091Z,1009.53
2018-07-04T07:10:34.065Z,1009.53
2018-07-04T07:11:34.040Z,1009.60
2018-07-04T07:12:34.022Z,1009.57
2018-07-04T07:13:33.987Z,1009.57
2018-07-04T07:14:34.093Z,1009.52
2018-07-04T07:15:33.950Z,1009.57
2018-07-04T07:16:33.925Z,1009.57
2018-07-04T07:17:33.900Z,1009.53
2018-07-04T07:18:33.873Z,1009.52
2018-07-04T07:19:33.874Z,1009.53
2018-07-04T07:20:33.830Z,1009.53
2018-07-04T07:21:33.825Z,1009.51
2018-07-04T07:22:33.789Z,1009.49
2018-07-04T07:23:33.763Z,1009.46
2018-07-04T07:24:33.749Z,1009.48
2018-07-04T07:25:33.724Z,1009.50
2018-07-04T07:26:33.702Z,1009.44
2018-07-04T07:27:33.677Z,1009.47
2018-07-04T07:28:33.666Z,1009.47
2018-07-04T07:29:33.639Z,1009.47
2018-07-04T07:30:33.609Z,1009.45
2018-07-04T07:31:33.601Z,1009.48
2018-07-04T07:32:33.580Z,1009.48
2018-07-04T07:33:33.535Z,1009.46
2018-07-04T07:34:33.520Z,1009.45
2018-07-04T07:35:33.498Z,1009.42
2018-07-04T07:36:33.489Z,1009.42
2018-07-04T07:37:33.461Z,1009.38
2018-07-04T07:38:33.436Z,1009.43
2018-07-04T07:39:33.422Z,1009.41
2018-07-04T07:40:33.385Z,1009.44
2018-07-04T07:41:33.367Z,1009.45
2018-07-04T07:42:33.339Z,1009.45
2018-07-04T07:43:33.320Z,1009.44
2018-07-04T07:44:33.293Z,1009.37
2018-07-04T07:45:33.275Z,1009.43
2018-07-04T07:46:33.255Z,1009.43
2018-07-04T07:47:33.229Z,1009.43
2018-07-04T07:48:33.397Z,1009.41
2018-07-04T07:49:33.191Z,1009.46
2018-07-04T07:50:33.203Z,1009.45
2018-07-04T07:51:33.148Z,1009.47
2018-07-04T07:52:33.128Z,1009.46
2018-07-04T07:53:33.105Z,1009.41
2018-07-04T07:54:33.082Z,1009.40
2018-07-04T07:55:33.056Z,1009.38
2018-07-04T07:56:33.037Z,1009.37
2018-07-04T07:57:33.014Z,1009.38
2018-07-04T07:58:32.997Z,1009.39
2018-07-04T07:59:32.977Z,1009.37
2018-07-04T08:00:32.948Z,1009.38
2018-07-04T08:01:32.931Z,1009.37
2018-07-04T08:02:32.911Z,1009.35
2018-07-04T08:03:32.886Z,1009.35
2018-07-04T08:04:32.900Z,1009.34
2018-07-04T08:05:32.842Z,1009.30
2018-07-04T08:06:32.823Z,1009.32
2018-07-04T08:07:32.808Z,1009.29
2018-07-04T08:08:32.785Z,1009.27
2018-07-04T08:09:32.752Z,1009.29
2018-07-04T08:10:32.741Z,1009.31
2018-07-04T08:11:32.731Z,1009.29
2018-07-04T08:12:32.689Z,1009.28
2018-07-04T08:13:32.679Z,1009.28
2018-07-04T08:14:32.664Z,1009.25
2018-07-04T08:15:32.634Z,1009.24
2018-07-04T08:16:32.621Z,1009.26
2018-07-04T08:17:32.612Z,1009.27
2018-07-04T08:18:32.578Z,1009.25
2018-07-04T08:19:32.560Z,1009.27
2018-07-04T08:20:32.526Z,1009.27
2018-07-04T08:21:32.509Z,1009.25
2018-07-04T08:22:32.506Z,1009.21
2018-07-04T08:23:32.464Z,1009.23
2018-07-04T08:24:32.452Z,1009.20
2018-07-04T08:25:32.435Z,1009.20
2018-07-04T08:26:32.404Z,1009.17
2018-07-04T08:27:32.383Z,1009.18
2018-07-04T08:28:32.368Z,1009.18
2018-07-04T08:29:32.376Z,1009.18
2018-07-04T08:30:33.549Z,1009.16
2018-07-04T08:31:32.302Z,1009.21
2018-07-04T08:32:32.289Z,1009.21
2018-07-04T08:33:32.316Z,1009.22
2018-07-04T08:34:32.242Z,1009.22
2018-07-04T08:35:32.249Z,1009.23
2018-07-04T08:36:32.212Z,1009.22
2018-07-04T08:37:32.174Z,1009.21
2018-07-04T08:38:32.172Z,1009.18
2018-07-04T08:39:32.162Z,1009.19
2018-07-04T08:40:32.121Z,1009.21
2018-07-04T08:41:32.104Z,1009.20
2018-07-04T08:42:32.080Z,1009.17
2018-07-04T08:43:32.066Z,1009.18
2018-07-04T08:44:32.033Z,1009.15
2018-07-04T08:45:32.021Z,1009.16
2018-07-04T08:46:31.993Z,1009.15
2018-07-04T08:47:31.981Z,1009.15
2018-07-04T08:48:31.965Z,1009.19
2018-07-04T08:49:31.945Z,1009.16
2018-07-04T08:50:31.916Z,1009.17
2018-07-04T08:51:31.893Z,1009.16
2018-07-04T08:52:32.646Z,1009.20
2018-07-04T08:53:32.647Z,1009.20
2018-07-04T08:54:31.839Z,1009.21
2018-07-04T08:55:31.814Z,1009.21
2018-07-04T08:56:31.804Z,1009.23
2018-07-04T08:57:31.780Z,1009.21
2018-07-04T08:58:31.759Z,1009.21
2018-07-04T08:59:31.744Z,1009.21
2018-07-04T09:00:31.720Z,1009.22
2018-07-04T09:01:31.695Z,1009.23
2018-07-04T09:02:31.678Z,1009.19
2018-07-04T09:03:31.658Z,1009.20
2018-07-04T09:04:31.633Z,1009.18
2018-07-04T09:05:31.651Z,1009.20
2018-07-04T09:06:31.594Z,1009.19
2018-07-04T09:07:31.574Z,1009.15
2018-07-04T09:08:31.560Z,1009.17
2018-07-04T09:09:31.548Z,1009.18
2018-07-04T09:10:32.058Z,1009.21
2018-07-04T09:11:31.525Z,1009.22
2018-07-04T09:12:31.483Z,1009.22
2018-07-04T09:13:31.456Z,1009.24
2018-07-04T09:14:31.429Z,1009.20
2018-07-04T09:15:31.414Z,1009.20
2018-07-04T09:16:31.396Z,1009.21
2018-07-04T09:17:31.377Z,1009.19
2018-07-04T09:18:31.349Z,1009.20
2018-07-04T09:19:31.356Z,1009.23
2018-07-04T09:20:31.345Z,1009.21
2018-07-04T09:21:31.298Z,1009.20
2018-07-04T09:23:31.259Z,1009.19
2018-07-04T09:24:31.239Z,1009.15
2018-07-04T09:25:31.219Z,1009.17
2018-07-04T09:26:31.192Z,1009.15
2018-07-04T09:27:31.169Z,1009.16
2018-07-04T09:28:31.161Z,1009.15
2018-07-04T09:29:31.134Z,1009.16
2018-07-04T09:30:31.107Z,1009.14
2018-07-04T09:31:31.120Z,1009.17
2018-07-04T09:32:31.081Z,1009.18
2018-07-04T09:33:31.061Z,1009.16
2018-07-04T09:34:31.034Z,1009.16
2018-07-04T09:35:31.033Z,1009.21
2018-07-04T09:36:30.996Z,1009.19
2018-07-04T09:37:30.983Z,1009.17
2018-07-04T09:38:30.992Z,1009.12
2018-07-04T09:39:30.951Z,1009.09
2018-07-04T09:40:30.919Z,1009.14
2018-07-04T09:41:30.893Z,1009.13
2018-07-04T09:42:30.906Z,1009.11
2018-07-04T09:43:30.858Z,1009.07
2018-07-04T09:44:30.841Z,1009.09
2018-07-04T09:45:30.822Z,1009.09
2018-07-04T09:46:30.803Z,1009.09
2018-07-04T09:47:30.781Z,1009.08
2018-07-04T09:48:30.769Z,1009.09
2018-07-04T09:49:30.746Z,1009.07
2018-07-04T09:50:30.727Z,1009.07
2018-07-04T09:51:30.737Z,1009.06
2018-07-04T09:52:30.689Z,1009.09
2018-07-04T09:53:30.663Z,1009.08
2018-07-04T09:54:30.651Z,1009.07
2018-07-04T09:55:30.637Z,1009.08
2018-07-04T09:56:30.618Z,1009.08
2018-07-04T09:57:30.584Z,1009.03
2018-07-04T09:58:30.577Z,1009.06
2018-07-04T09:59:30.580Z,1009.04
2018-07-04T10:00:30.532Z,1009.05
2018-07-04T10:01:30.513Z,1009.06
2018-07-04T10:02:30.492Z,1009.05
2018-07-04T10:03:30.486Z,1009.04
2018-07-04T10:04:30.455Z,1009.01
2018-07-04T10:05:30.427Z,1008.99
2018-07-04T10:06:30.418Z,1009.01
2018-07-04T10:07:30.395Z,1009.04
2018-07-04T10:08:30.383Z,1009.02
2018-07-04T10:09:30.365Z,1009.02
2018-07-04T10:10:30.340Z,1009.01
2018-07-04T10:11:30.325Z,1009.01
2018-07-04T10:12:30.349Z,1009.04
2018-07-04T10:13:30.277Z,1009.01
2018-07-04T10:14:30.264Z,1009.04
2018-07-04T10:15:30.242Z,1009.02
2018-07-04T10:16:30.231Z,1009.07
2018-07-04T10:17:30.205Z,1009.07
2018-07-04T10:18:30.189Z,1009.04
2018-07-04T10:19:30.177Z,1009.00
2018-07-04T10:20:30.149Z,1009.01
2018-07-04T10:21:30.135Z,1009.03
2018-07-04T10:22:30.144Z,1009.00
2018-07-04T10:23:30.090Z,1009.01
2018-07-04T10:24:30.130Z,1008.99
2018-07-04T10:25:30.048Z,1008.96
2018-07-04T10:26:30.039Z,1008.94
2018-07-04T10:28:30.012Z,1008.97
2018-07-04T10:29:29.980Z,1008.94
2018-07-04T10:30:29.974Z,1008.92
2018-07-04T10:31:29.941Z,1008.91
2018-07-04T10:32:29.926Z,1008.89
2018-07-04T10:33:29.907Z,1008.86
2018-07-04T10:34:29.891Z,1008.92
2018-07-04T10:35:29.868Z,1008.89
2018-07-04T10:36:29.852Z,1008.86
2018-07-04T10:37:29.823Z,1008.87
2018-07-04T10:38:30.584Z,1008.84
2018-07-04T10:40:29.787Z,1008.85
2018-07-04T10:41:29.753Z,1008.81
2018-07-04T10:42:29.739Z,1008.83
2018-07-04T10:43:29.714Z,1008.82
2018-07-04T10:44:29.709Z,1008.81
2018-07-04T10:45:29.704Z,1008.82
2018-07-04T10:46:29.667Z,1008.80
2018-07-04T10:47:29.647Z,1008.80
2018-07-04T10:48:29.630Z,1008.81
2018-07-04T10:49:29.607Z,1008.80
2018-07-04T10:50:29.595Z,1008.80
2018-07-04T10:51:29.572Z,1008.80
2018-07-04T10:52:29.556Z,1008.78
2018-07-04T10:54:29.520Z,1008.78
2018-07-04T10:55:29.503Z,1008.77
2018-07-04T10:56:29.488Z,1008.78
2018-07-04T10:57:29.461Z,1008.76
2018-07-04T10:58:29.473Z,1008.74
2018-07-04T10:59:29.440Z,1008.77
2018-07-04T11:00:29.415Z,1008.74
2018-07-04T11:01:29.396Z,1008.72
2018-07-04T11:02:29.373Z,1008.74
2018-07-04T11:03:29.353Z,1008.76
2018-07-04T11:04:29.360Z,1008.72
2018-07-04T11:05:31.188Z,1008.73
2018-07-04T11:06:29.305Z,1008.71
2018-07-04T11:11:29.227Z,1008.62
2018-07-04T11:12:29.216Z,1008.60
2018-07-04T11:13:29.186Z,1008.60
2018-07-04T11:14:29.164Z,1008.60
2018-07-04T11:15:29.144Z,1008.56
2018-07-04T11:17:29.105Z,1008.56
2018-07-04T11:18:29.097Z,1008.57
2018-07-04T11:19:29.071Z,1008.58
2018-07-04T11:20:29.059Z,1008.59
2018-07-04T11:22:29.057Z,1008.54
